createdAt,value
2018-10-17T00:00:36.879Z,90.10
2018-10-17T00:03:05.190Z,90.30
2018-10-17T00:05:33.501Z,90.20
2018-10-17T00:08:01.690Z,90.10
2018-10-17T00:10:29.913Z,90.40
2018-10-17T00:12:58.129Z,89.90
2018-10-17T00:15:26.296Z,89.90
2018-10-17T00:17:54.490Z,90.00
2018-10-17T00:20:22.672Z,89.80
2018-10-17T00:22:50.906Z,89.70
2018-10-17T00:25:19.069Z,89.30
2018-10-17T00:27:47.275Z,90.00
2018-10-17T00:30:15.429Z,90.10
2018-10-17T00:32:43.645Z,90.10
2018-10-17T00:35:11.898Z,90.20
2018-10-17T00:37:40.152Z,90.10
2018-10-17T00:40:08.440Z,90.10
2018-10-17T00:42:36.997Z,89.80
2018-10-17T00:45:06.105Z,89.90
2018-10-17T00:47:34.325Z,89.90
2018-10-17T00:50:02.546Z,90.10
2018-10-17T00:52:30.745Z,89.80
2018-10-17T00:54:58.982Z,89.80
2018-10-17T00:57:30.101Z,89.40
2018-10-17T00:59:58.326Z,89.20
2018-10-17T01:02:26.516Z,89.40
2018-10-17T01:04:54.768Z,89.60
2018-10-17T01:07:22.912Z,89.80
2018-10-17T01:09:51.129Z,90.00
2018-10-17T01:12:19.333Z,89.80
2018-10-17T01:14:47.518Z,89.80
2018-10-17T01:17:15.784Z,91.00
2018-10-17T01:19:43.908Z,90.90
2018-10-17T01:22:12.117Z,91.00
2018-10-17T01:24:40.369Z,91.00
2018-10-17T01:27:08.525Z,90.80
2018-10-17T01:29:36.873Z,91.00
2018-10-17T01:32:05.320Z,91.10
2018-10-17T01:34:33.676Z,91.00
2018-10-17T01:37:01.916Z,91.50
2018-10-17T01:39:30.135Z,91.60
2018-10-17T01:41:58.328Z,91.50
2018-10-17T01:44:26.476Z,91.30
2018-10-17T01:46:54.670Z,91.10
2018-10-17T01:49:22.861Z,91.00
2018-10-17T01:51:51.050Z,91.40
2018-10-17T01:54:19.245Z,91.40
2018-10-17T01:56:47.401Z,91.20
2018-10-17T01:59:15.711Z,90.90
2018-10-17T02:01:43.868Z,90.70
2018-10-17T02:04:12.089Z,90.70
2018-10-17T02:06:40.304Z,90.50
2018-10-17T02:09:08.983Z,90.50
2018-10-17T02:11:37.666Z,90.30
2018-10-17T02:14:05.868Z,90.60
2018-10-17T02:16:34.093Z,90.40
2018-10-17T02:19:02.383Z,90.40
2018-10-17T02:21:30.524Z,90.30
2018-10-17T02:23:58.729Z,90.50
2018-10-17T02:26:26.900Z,90.40
2018-10-17T02:28:55.141Z,90.40
2018-10-17T02:31:23.377Z,90.40
2018-10-17T02:33:51.541Z,90.30
2018-10-17T02:36:19.764Z,90.10
2018-10-17T02:38:48.012Z,91.10
2018-10-17T02:41:16.317Z,90.90
2018-10-17T02:43:44.482Z,90.70
2018-10-17T02:46:12.681Z,91.70
2018-10-17T02:48:40.896Z,91.70
2018-10-17T02:51:09.060Z,91.50
2018-10-17T02:53:37.265Z,91.30
2018-10-17T02:56:05.541Z,91.40
2018-10-17T02:58:33.724Z,91.00
2018-10-17T03:01:01.952Z,91.40
2018-10-17T03:03:30.153Z,91.70
2018-10-17T03:05:58.400Z,91.70
2018-10-17T03:08:26.568Z,91.40
2018-10-17T03:10:54.799Z,91.30
2018-10-17T03:13:23.092Z,91.20
2018-10-17T03:15:51.282Z,91.60
2018-10-17T03:18:19.537Z,91.60
2018-10-17T03:20:47.812Z,91.50
2018-10-17T03:23:16.064Z,91.90
2018-10-17T03:25:44.252Z,91.60
2018-10-17T03:28:12.482Z,92.40
2018-10-17T03:30:40.673Z,92.20
2018-10-17T03:33:08.834Z,91.80
2018-10-17T03:35:37.042Z,91.60
2018-10-17T03:38:05.706Z,91.60
2018-10-17T03:40:33.930Z,91.50
2018-10-17T03:43:02.205Z,91.50
2018-10-17T03:45:30.377Z,91.40
2018-10-17T03:47:58.544Z,91.40
2018-10-17T03:50:26.758Z,91.60
2018-10-17T03:52:54.978Z,91.40
2018-10-17T03:55:23.230Z,91.40
2018-10-17T03:57:51.444Z,91.60
2018-10-17T04:00:19.667Z,91.80
2018-10-17T04:02:47.879Z,91.40
2018-10-17T04:05:16.110Z,91.50
2018-10-17T04:07:44.324Z,92.50
2018-10-17T04:10:12.546Z,92.80
2018-10-17T04:12:40.757Z,93.00
2018-10-17T04:15:08.966Z,93.30
2018-10-17T04:17:37.184Z,93.40
2018-10-17T04:20:05.649Z,93.00
2018-10-17T04:22:33.841Z,92.80
2018-10-17T04:25:02.173Z,92.70
2018-10-17T04:27:30.334Z,92.50
2018-10-17T04:29:58.549Z,92.60
2018-10-17T04:32:26.788Z,92.20
2018-10-17T04:34:55.026Z,92.30
2018-10-17T04:37:23.217Z,92.70
2018-10-17T04:39:51.438Z,92.30
2018-10-17T04:42:19.662Z,93.00
2018-10-17T04:44:47.881Z,93.90
2018-10-17T04:47:16.148Z,94.10
2018-10-17T04:49:44.311Z,93.90
2018-10-17T04:52:12.509Z,93.70
2018-10-17T04:54:41.131Z,93.70
2018-10-17T04:57:09.353Z,93.20
2018-10-17T04:59:37.565Z,93.50
2018-10-17T05:02:05.870Z,93.20
2018-10-17T05:04:34.102Z,93.10
2018-10-17T05:07:02.306Z,93.10
2018-10-17T05:09:30.505Z,92.70
2018-10-17T05:11:58.710Z,92.90
2018-10-17T05:14:26.901Z,92.90
2018-10-17T05:16:55.098Z,93.20
2018-10-17T05:19:23.353Z,93.00
2018-10-17T05:21:51.521Z,93.10
2018-10-17T05:24:19.786Z,92.80
2018-10-17T05:26:48.012Z,92.70
2018-10-17T05:29:16.279Z,92.40
2018-10-17T05:31:45.209Z,92.40
2018-10-17T05:34:13.409Z,92.80
2018-10-17T05:36:41.614Z,92.80
2018-10-17T05:39:09.817Z,93.00
2018-10-17T05:41:38.069Z,92.70
2018-10-17T05:44:06.300Z,92.60
2018-10-17T05:46:34.493Z,92.60
2018-10-17T05:49:02.749Z,93.00
2018-10-17T05:51:31.073Z,93.30
2018-10-17T05:53:59.268Z,94.10
2018-10-17T05:56:27.480Z,94.60
2018-10-17T05:58:55.723Z,94.80
2018-10-17T06:01:23.982Z,94.50
2018-10-17T06:03:52.207Z,94.10
2018-10-17T06:06:20.405Z,93.80
2018-10-17T06:08:48.628Z,94.30
2018-10-17T06:11:16.946Z,94.00
2018-10-17T06:13:45.114Z,94.00
2018-10-17T06:16:13.417Z,93.60
2018-10-17T06:18:44.609Z,92.60
2018-10-17T06:21:12.888Z,92.20
2018-10-17T06:23:41.100Z,92.90
2018-10-17T06:26:09.373Z,92.40
2018-10-17T06:28:37.593Z,92.30
2018-10-17T06:31:05.860Z,91.80
2018-10-17T06:33:34.033Z,91.40
2018-10-17T06:36:02.310Z,91.10
2018-10-17T06:38:30.503Z,90.80
2018-10-17T06:40:58.789Z,90.30
2018-10-17T06:43:27.048Z,90.00
2018-10-17T06:45:55.252Z,89.90
2018-10-17T06:48:23.453Z,89.40
2018-10-17T06:50:51.602Z,89.30
2018-10-17T06:53:19.861Z,88.80
2018-10-17T06:55:48.061Z,88.50
2018-10-17T06:58:16.378Z,88.20
2018-10-17T07:00:44.553Z,87.40
2018-10-17T07:03:12.783Z,87.50
2018-10-17T07:05:40.989Z,87.30
2018-10-17T07:08:09.173Z,88.00
2018-10-17T07:10:37.373Z,87.50
2018-10-17T07:13:05.679Z,87.20
2018-10-17T07:15:33.986Z,86.60
2018-10-17T07:18:02.173Z,86.00
2018-10-17T07:20:30.343Z,85.50
2018-10-17T07:22:58.606Z,83.60
2018-10-17T07:25:26.834Z,84.00
2018-10-17T07:27:55.037Z,83.80
2018-10-17T07:30:23.217Z,83.40
2018-10-17T07:32:51.446Z,82.70
2018-10-17T07:35:19.653Z,82.50
2018-10-17T07:37:47.850Z,82.50
2018-10-17T07:40:16.074Z,80.80
2018-10-17T07:42:44.321Z,80.60
2018-10-17T07:45:12.605Z,80.90
2018-10-17T07:47:40.829Z,81.20
2018-10-17T07:50:09.754Z,81.10
2018-10-17T07:52:37.952Z,80.70
2018-10-17T07:55:07.444Z,80.70
2018-10-17T07:57:35.657Z,80.40
2018-10-17T08:00:05.608Z,78.50
2018-10-17T08:02:33.742Z,78.70
2018-10-17T08:05:01.941Z,78.00
2018-10-17T08:07:30.156Z,78.00
2018-10-17T08:09:58.353Z,77.90
2018-10-17T08:12:26.634Z,77.80
2018-10-17T08:14:54.825Z,78.30
2018-10-17T08:17:23.069Z,78.10
2018-10-17T08:19:51.221Z,78.00
2018-10-17T08:22:19.461Z,76.30
2018-10-17T08:24:47.661Z,76.80
2018-10-17T08:27:15.967Z,76.60
2018-10-17T08:29:44.226Z,75.90
2018-10-17T08:32:12.442Z,76.60
2018-10-17T08:34:40.652Z,76.50
2018-10-17T08:37:09.183Z,76.10
2018-10-17T08:39:37.069Z,74.80
2018-10-17T08:42:06.274Z,73.00
2018-10-17T08:44:34.521Z,73.50
2018-10-17T08:47:02.796Z,73.80
2018-10-17T08:49:31.017Z,72.70
2018-10-17T08:51:59.241Z,72.90
2018-10-17T08:54:27.401Z,71.90
2018-10-17T08:56:55.642Z,72.00
2018-10-17T08:59:23.845Z,73.10
2018-10-17T09:01:52.081Z,73.20
2018-10-17T09:04:20.297Z,73.10
2018-10-17T09:06:48.524Z,74.70
2018-10-17T09:09:16.721Z,74.60
2018-10-17T09:11:44.946Z,74.40
2018-10-17T09:14:13.263Z,74.30
2018-10-17T09:16:41.501Z,74.00
2018-10-17T09:19:10.190Z,75.40
2018-10-17T09:21:38.967Z,74.30
2018-10-17T09:24:07.028Z,74.00
2018-10-17T09:26:35.126Z,73.40
2018-10-17T09:29:03.461Z,73.20
2018-10-17T09:31:31.718Z,73.10
2018-10-17T09:33:59.958Z,71.80
2018-10-17T09:36:28.172Z,72.20
2018-10-17T09:38:56.380Z,70.40
2018-10-17T09:41:24.629Z,72.10
2018-10-17T09:43:52.826Z,74.50
2018-10-17T09:46:21.119Z,75.20
2018-10-17T09:48:49.297Z,74.30
2018-10-17T09:51:17.506Z,74.10
2018-10-17T09:53:45.692Z,74.10
2018-10-17T09:56:13.845Z,73.70
2018-10-17T09:58:42.074Z,73.70
2018-10-17T10:01:15.849Z,72.70
2018-10-17T10:03:44.185Z,71.90
2018-10-17T10:06:12.435Z,71.20
2018-10-17T10:08:40.594Z,72.60
2018-10-17T10:11:08.950Z,72.50
2018-10-17T10:13:37.087Z,71.80
2018-10-17T10:16:05.371Z,71.30
2018-10-17T10:18:33.541Z,74.30
2018-10-17T10:21:01.784Z,73.10
2018-10-17T10:23:30.104Z,72.70
2018-10-17T10:25:58.326Z,71.70
2018-10-17T10:28:26.724Z,69.60
2018-10-17T10:30:54.777Z,70.80
2018-10-17T10:33:22.997Z,71.20
2018-10-17T10:35:51.257Z,71.80
2018-10-17T10:38:19.420Z,72.50
2018-10-17T10:40:47.662Z,69.80
2018-10-17T10:43:16.100Z,70.20
2018-10-17T10:45:44.367Z,70.60
2018-10-17T10:48:12.729Z,69.10
2018-10-17T10:50:41.008Z,69.90
2018-10-17T10:53:09.302Z,69.90
2018-10-17T10:55:37.479Z,68.50
2018-10-17T10:58:05.765Z,69.60
2018-10-17T11:00:33.976Z,69.80
2018-10-17T11:03:02.253Z,68.90
2018-10-17T11:05:30.637Z,68.50
2018-10-17T11:07:58.741Z,68.80
2018-10-17T11:10:26.968Z,68.80
2018-10-17T11:12:55.189Z,67.90
2018-10-17T11:15:23.422Z,69.20
2018-10-17T11:17:52.576Z,69.10
2018-10-17T11:20:20.858Z,69.70
2018-10-17T11:22:49.048Z,68.50
2018-10-17T11:25:17.205Z,68.70
2018-10-17T11:27:45.597Z,67.80
2018-10-17T11:30:13.838Z,67.40
2018-10-17T11:32:42.042Z,68.70
2018-10-17T11:35:11.259Z,68.10
2018-10-17T11:37:39.460Z,68.70
2018-10-17T11:40:08.509Z,67.50
2018-10-17T11:42:36.628Z,68.60
2018-10-17T11:45:05.359Z,68.20
2018-10-17T11:47:33.876Z,68.10
2018-10-17T11:50:02.465Z,67.40
2018-10-17T11:52:31.313Z,66.40
2018-10-17T11:54:59.512Z,67.20
2018-10-17T11:57:27.757Z,66.70
2018-10-17T11:59:56.013Z,65.70
2018-10-17T12:02:25.012Z,65.80
2018-10-17T12:04:53.930Z,66.60
2018-10-17T12:07:21.896Z,66.90
2018-10-17T12:09:50.112Z,64.50
2018-10-17T12:12:18.337Z,65.80
2018-10-17T12:14:46.545Z,66.50
2018-10-17T12:17:14.752Z,65.90
2018-10-17T12:19:42.966Z,66.40
2018-10-17T12:22:11.827Z,67.00
2018-10-17T12:24:40.012Z,66.90
2018-10-17T12:27:08.231Z,66.10
2018-10-17T12:29:36.462Z,66.30
2018-10-17T12:32:05.257Z,66.10
2018-10-17T12:34:33.615Z,66.40
2018-10-17T12:37:01.806Z,65.60
2018-10-17T12:39:30.125Z,65.20
2018-10-17T12:41:58.260Z,64.50
2018-10-17T12:44:26.485Z,64.60
2018-10-17T12:46:54.736Z,63.70
2018-10-17T12:49:23.008Z,64.00
2018-10-17T12:51:51.178Z,64.60
2018-10-17T12:54:19.430Z,63.90
2018-10-17T12:56:47.657Z,64.90
2018-10-17T12:59:15.971Z,64.90
2018-10-17T13:01:44.182Z,64.60
2018-10-17T13:04:12.361Z,66.10
2018-10-17T13:06:40.638Z,65.50
2018-10-17T13:09:10.278Z,64.50
2018-10-17T13:11:39.206Z,64.80
2018-10-17T13:14:07.426Z,64.60
2018-10-17T13:16:36.330Z,64.80
2018-10-17T13:19:04.699Z,64.60
2018-10-17T13:21:32.991Z,64.90
2018-10-17T13:24:01.270Z,64.70
2018-10-17T13:26:29.494Z,65.10
2018-10-17T13:28:57.677Z,65.60
2018-10-17T13:31:25.885Z,66.00
2018-10-17T13:33:54.093Z,65.00
2018-10-17T13:36:22.321Z,65.10
2018-10-17T13:38:50.545Z,65.60
2018-10-17T13:41:18.766Z,65.20
2018-10-17T13:43:47.055Z,64.70
2018-10-17T13:46:15.316Z,65.20
2018-10-17T13:48:43.594Z,64.90
2018-10-17T13:51:11.845Z,64.70
2018-10-17T13:53:40.137Z,65.70
2018-10-17T13:56:08.342Z,65.70
2018-10-17T13:58:36.565Z,64.80
2018-10-17T14:01:04.902Z,65.10
2018-10-17T14:03:33.093Z,64.60
2018-10-17T14:06:02.075Z,64.70
2018-10-17T14:08:30.278Z,65.10
2018-10-17T14:10:58.545Z,64.80
2018-10-17T14:13:26.885Z,64.40
2018-10-17T14:15:55.117Z,65.00
2018-10-17T14:18:23.333Z,65.40
2018-10-17T14:20:58.249Z,65.20
2018-10-17T14:23:26.588Z,64.40
2018-10-17T14:25:54.717Z,65.00
2018-10-17T14:28:23.065Z,65.90
2018-10-17T14:30:51.269Z,66.30
2018-10-17T14:33:19.485Z,66.20
2018-10-17T14:35:47.683Z,66.30
2018-10-17T14:38:15.925Z,66.10
2018-10-17T14:40:44.205Z,66.10
2018-10-17T14:43:12.445Z,66.70
2018-10-17T14:45:40.690Z,67.30
2018-10-17T14:48:09.312Z,66.10
2018-10-17T14:50:37.553Z,66.30
2018-10-17T14:53:06.410Z,66.70
2018-10-17T14:55:34.646Z,66.10
2018-10-17T14:58:02.919Z,67.10
2018-10-17T15:00:31.170Z,67.10
2018-10-17T15:02:59.452Z,67.00
2018-10-17T15:05:27.621Z,66.40
2018-10-17T15:07:55.955Z,67.10
2018-10-17T15:10:24.231Z,67.60
2018-10-17T15:12:52.414Z,68.20
2018-10-17T15:15:20.704Z,68.70
2018-10-17T15:17:48.902Z,69.00
2018-10-17T15:20:17.471Z,69.40
2018-10-17T15:22:45.683Z,70.20
2018-10-17T15:25:13.865Z,70.80
2018-10-17T15:27:42.087Z,71.50
2018-10-17T15:30:10.400Z,72.10
2018-10-17T15:32:38.527Z,72.70
2018-10-17T15:35:07.561Z,72.50
2018-10-17T15:37:35.812Z,73.00
2018-10-17T15:40:04.177Z,73.40
2018-10-17T15:42:32.385Z,73.40
2018-10-17T15:45:00.619Z,73.70
2018-10-17T15:47:28.865Z,73.80
2018-10-17T15:49:57.138Z,73.70
2018-10-17T15:52:25.310Z,73.50
2018-10-17T15:54:53.670Z,73.40
2018-10-17T15:57:21.947Z,74.30
2018-10-17T15:59:50.114Z,74.20
2018-10-17T16:02:18.498Z,74.50
2018-10-17T16:04:46.642Z,75.30
2018-10-17T16:07:14.898Z,75.60
2018-10-17T16:09:43.077Z,76.30
2018-10-17T16:12:11.356Z,76.60
2018-10-17T16:14:39.558Z,76.90
2018-10-17T16:17:07.760Z,77.30
2018-10-17T16:19:35.986Z,77.90
2018-10-17T16:22:04.550Z,78.30
2018-10-17T16:24:32.798Z,78.30
2018-10-17T16:27:01.029Z,78.60
2018-10-17T16:29:29.206Z,79.30
2018-10-17T16:31:57.506Z,79.70
2018-10-17T16:34:25.736Z,79.70
2018-10-17T16:36:53.961Z,79.50
2018-10-17T16:39:22.229Z,80.50
2018-10-17T16:41:50.433Z,79.80
2018-10-17T16:44:18.694Z,80.40
2018-10-17T16:46:46.933Z,81.10
2018-10-17T16:49:15.176Z,81.30
2018-10-17T16:51:43.425Z,81.40
2018-10-17T16:54:11.721Z,81.80
2018-10-17T16:56:39.937Z,82.10
2018-10-17T16:59:08.170Z,82.30
2018-10-17T17:01:36.377Z,82.30
2018-10-17T17:04:04.685Z,82.50
2018-10-17T17:06:32.957Z,82.70
2018-10-17T17:09:01.257Z,82.90
2018-10-17T17:11:29.505Z,83.00
2018-10-17T17:13:57.766Z,83.10
2018-10-17T17:16:26.021Z,83.20
2018-10-17T17:18:54.193Z,83.30
2018-10-17T17:21:22.412Z,83.50
2018-10-17T17:23:50.605Z,83.70
2018-10-17T17:26:18.869Z,84.20
2018-10-17T17:28:47.037Z,84.60
2018-10-17T17:31:15.250Z,84.60
2018-10-17T17:33:43.414Z,84.80
2018-10-17T17:36:11.702Z,85.10
2018-10-17T17:38:39.877Z,85.10
2018-10-17T17:41:08.840Z,85.20
2018-10-17T17:43:39.033Z,85.60
2018-10-17T17:46:07.317Z,85.60
2018-10-17T17:48:35.589Z,86.00
2018-10-17T17:51:03.783Z,86.10
2018-10-17T17:53:32.022Z,86.20
2018-10-17T17:56:00.214Z,86.20
2018-10-17T17:58:28.670Z,86.10
2018-10-17T18:00:56.840Z,86.10
2018-10-17T18:03:25.120Z,85.70
2018-10-17T18:05:53.336Z,85.50
2018-10-17T18:08:21.562Z,86.00
2018-10-17T18:10:49.777Z,86.00
2018-10-17T18:13:18.014Z,86.10
2018-10-17T18:15:46.835Z,86.40
2018-10-17T18:18:15.614Z,85.90
2018-10-17T18:20:43.797Z,86.00
2018-10-17T18:23:13.010Z,85.80
2018-10-17T18:25:41.224Z,85.90
2018-10-17T18:28:09.583Z,86.00
2018-10-17T18:30:38.094Z,86.10
2018-10-17T18:33:07.413Z,86.00
2018-10-17T18:35:35.647Z,86.00
2018-10-17T18:38:04.786Z,86.00
2018-10-17T18:40:33.206Z,86.10
2018-10-17T18:43:01.385Z,86.40
2018-10-17T18:45:29.658Z,86.60
2018-10-17T18:47:57.927Z,86.70
2018-10-17T18:50:26.794Z,86.40
2018-10-17T18:52:56.002Z,86.80
2018-10-17T18:55:24.922Z,86.90
2018-10-17T18:57:53.746Z,87.00
2018-10-17T19:00:21.997Z,87.30
2018-10-17T19:02:50.266Z,87.70
2018-10-17T19:05:18.534Z,87.90
2018-10-17T19:07:46.757Z,88.20
2018-10-17T19:10:15.022Z,88.50
2018-10-17T19:12:43.226Z,88.50
2018-10-17T19:15:11.537Z,88.40
2018-10-17T19:17:40.438Z,88.40
2018-10-17T19:20:10.130Z,88.30
2018-10-17T19:22:38.437Z,88.40
2018-10-17T19:25:07.057Z,88.40
2018-10-17T19:27:36.589Z,88.40
2018-10-17T19:30:08.057Z,88.40
2018-10-17T19:32:36.249Z,88.40
2018-10-17T19:35:05.686Z,88.40
2018-10-17T19:37:34.635Z,88.40
2018-10-17T19:40:04.279Z,88.60
2018-10-17T19:42:33.264Z,88.60
2018-10-17T19:45:01.626Z,88.60
2018-10-17T19:47:29.819Z,88.60
2018-10-17T19:49:58.001Z,88.60
2018-10-17T19:52:26.213Z,88.60
2018-10-17T19:54:54.392Z,88.80
2018-10-17T19:57:22.637Z,89.20
2018-10-17T19:59:50.878Z,89.50
2018-10-17T20:02:19.103Z,89.20
2018-10-17T20:04:47.300Z,89.20
2018-10-17T20:07:15.505Z,89.10
2018-10-17T20:09:43.717Z,88.90
2018-10-17T20:12:11.949Z,89.20
2018-10-17T20:14:40.141Z,89.60
2018-10-17T20:17:08.397Z,89.60
2018-10-17T20:19:37.130Z,89.40
2018-10-17T20:22:08.459Z,89.30
2018-10-17T20:24:36.650Z,89.70
2018-10-17T20:27:05.360Z,89.90
2018-10-17T20:29:33.729Z,89.70
2018-10-17T20:32:02.050Z,90.10
2018-10-17T20:34:30.270Z,90.10
2018-10-17T20:36:58.512Z,89.60
2018-10-17T20:39:26.749Z,89.90
2018-10-17T20:41:54.972Z,89.90
2018-10-17T20:44:23.261Z,89.80
2018-10-17T20:46:51.493Z,89.70
2018-10-17T20:49:19.666Z,89.90
2018-10-17T20:51:47.882Z,89.60
2018-10-17T20:54:16.058Z,89.50
2018-10-17T20:56:44.252Z,89.60
2018-10-17T20:59:12.461Z,90.40
2018-10-17T21:01:40.684Z,90.40
2018-10-17T21:04:08.901Z,90.70
2018-10-17T21:06:37.089Z,91.10
2018-10-17T21:09:10.849Z,90.80
2018-10-17T21:11:39.095Z,90.90
2018-10-17T21:14:07.395Z,91.30
2018-10-17T21:16:35.609Z,91.60
2018-10-17T21:19:03.840Z,92.30
2018-10-17T21:21:32.057Z,92.40
2018-10-17T21:24:00.238Z,92.50
2018-10-17T21:26:28.532Z,92.50
2018-10-17T21:28:56.742Z,92.00
2018-10-17T21:31:24.983Z,92.30
2018-10-17T21:33:53.214Z,91.80
2018-10-17T21:36:21.482Z,91.90
2018-10-17T21:38:49.681Z,91.60
2018-10-17T21:41:17.850Z,91.10
2018-10-17T21:43:46.061Z,90.70
2018-10-17T21:46:14.230Z,90.60
2018-10-17T21:48:42.465Z,90.50
2018-10-17T21:51:10.690Z,90.70
2018-10-17T21:53:38.877Z,90.70
2018-10-17T21:56:07.144Z,90.40
2018-10-17T21:58:35.292Z,90.40
2018-10-17T22:01:03.559Z,90.50
2018-10-17T22:03:31.737Z,90.20
2018-10-17T22:05:59.967Z,90.20
2018-10-17T22:08:28.212Z,90.20
2018-10-17T22:10:56.430Z,89.80
2018-10-17T22:13:24.651Z,89.80
2018-10-17T22:15:52.817Z,89.70
2018-10-17T22:18:21.023Z,89.40
2018-10-17T22:20:49.221Z,89.30
2018-10-17T22:23:17.441Z,88.90
2018-10-17T22:25:45.668Z,88.90
2018-10-17T22:28:13.816Z,89.20
2018-10-17T22:30:42.013Z,90.60
2018-10-17T22:33:10.174Z,90.90
2018-10-17T22:35:38.381Z,91.70
2018-10-17T22:38:06.652Z,91.30
2018-10-17T22:40:34.782Z,91.10
2018-10-17T22:43:02.984Z,91.00
2018-10-17T22:45:31.225Z,90.60
2018-10-17T22:47:59.431Z,90.30
2018-10-17T22:50:27.606Z,90.50
2018-10-17T22:52:55.858Z,90.80
2018-10-17T22:55:24.081Z,91.20
2018-10-17T22:57:52.334Z,91.40
2018-10-17T23:00:20.572Z,91.20
2018-10-17T23:02:48.732Z,91.10
2018-10-17T23:05:16.942Z,91.10
2018-10-17T23:07:45.117Z,90.80
2018-10-17T23:10:13.344Z,91.00
2018-10-17T23:12:41.505Z,91.60
2018-10-17T23:15:12.489Z,91.50
2018-10-17T23:17:40.779Z,91.30
2018-10-17T23:20:09.504Z,91.40
2018-10-17T23:22:38.066Z,91.30
2018-10-17T23:25:07.045Z,91.80
2018-10-17T23:27:35.349Z,91.70
2018-10-17T23:30:03.632Z,91.70
2018-10-17T23:32:31.813Z,92.60
2018-10-17T23:35:00.041Z,92.40
2018-10-17T23:37:28.267Z,92.70
2018-10-17T23:39:56.468Z,92.90
2018-10-17T23:42:24.682Z,92.60
2018-10-17T23:44:52.914Z,92.60
2018-10-17T23:47:21.105Z,92.70
2018-10-17T23:49:49.289Z,92.60
2018-10-17T23:52:17.582Z,92.30
2018-10-17T23:54:45.770Z,91.70
2018-10-17T23:57:13.953Z,91.30
2018-10-17T23:59:42.215Z,91.00
